createdAt,value
2022-12-04T00:00:43.933Z,51.156101
2022-12-04T00:01:43.913Z,51.156094
2022-12-04T00:02:43.941Z,51.156078
2022-12-04T00:03:43.818Z,51.156113
2022-12-04T00:04:43.864Z,51.156094
2022-12-04T00:05:43.848Z,51.156052
2022-12-04T00:06:43.790Z,51.156071
2022-12-04T00:07:43.886Z,51.156048
2022-12-04T00:08:43.774Z,51.156101
2022-12-04T00:09:43.833Z,51.156059
2022-12-04T00:10:43.865Z,51.156082
2022-12-04T00:11:43.761Z,51.156090
2022-12-04T00:12:44.287Z,51.156109
2022-12-04T00:13:43.734Z,51.156086
2022-12-04T00:15:16.621Z,51.156063
2022-12-04T00:15:45.755Z,51.156086
2022-12-04T00:16:43.816Z,51.156082
2022-12-04T00:17:43.692Z,51.156120
2022-12-04T00:18:43.679Z,51.156082
2022-12-04T00:19:43.697Z,51.156078
2022-12-04T00:20:43.667Z,51.156086
2022-12-04T00:21:43.661Z,51.156086
2022-12-04T00:22:43.653Z,51.156067
2022-12-04T00:23:43.643Z,51.156075
2022-12-04T00:24:43.667Z,51.156090
2022-12-04T00:25:43.657Z,51.156086
2022-12-04T00:26:43.606Z,51.156071
2022-12-04T00:27:43.627Z,51.156078
2022-12-04T00:28:43.620Z,51.156063
2022-12-04T00:29:44.736Z,51.156071
2022-12-04T00:30:43.629Z,51.156071
2022-12-04T00:31:43.694Z,51.156052
2022-12-04T00:32:43.590Z,51.156075
2022-12-04T00:33:43.545Z,51.156059
2022-12-04T00:34:43.550Z,51.156082
2022-12-04T00:35:43.661Z,51.156082
2022-12-04T00:36:43.714Z,51.156078
2022-12-04T00:37:43.619Z,51.156067
2022-12-04T00:38:43.650Z,51.156067
2022-12-04T00:39:43.751Z,51.156090
2022-12-04T00:40:43.510Z,51.156113
2022-12-04T00:41:43.533Z,51.156090
2022-12-04T00:42:46.404Z,51.156082
2022-12-04T00:43:43.480Z,51.156094
2022-12-04T00:44:43.498Z,51.156086
2022-12-04T00:45:43.556Z,51.156090
2022-12-04T00:46:43.434Z,51.156120
2022-12-04T00:47:43.490Z,51.156101
2022-12-04T00:48:43.435Z,51.156071
2022-12-04T00:49:44.283Z,51.156063
2022-12-04T00:50:43.429Z,51.156132
2022-12-04T00:51:43.398Z,51.156120
2022-12-04T00:52:43.403Z,51.156124
2022-12-04T00:53:43.368Z,51.156113
2022-12-04T00:54:43.348Z,51.156120
2022-12-04T00:55:43.391Z,51.156082
2022-12-04T00:56:43.511Z,51.156101
2022-12-04T00:57:43.420Z,51.156086
2022-12-04T00:58:43.513Z,51.156086
2022-12-04T00:59:43.390Z,51.156059
2022-12-04T01:00:43.515Z,51.156082
2022-12-04T01:01:43.327Z,51.156063
2022-12-04T01:02:43.349Z,51.156071
2022-12-04T01:03:43.254Z,51.156071
2022-12-04T01:04:43.421Z,51.156059
2022-12-04T01:05:43.230Z,51.156139
2022-12-04T01:06:43.250Z,51.156075
2022-12-04T01:07:43.295Z,51.156017
2022-12-04T01:08:44.173Z,51.155991
2022-12-04T01:09:43.190Z,51.156040
2022-12-04T01:10:43.224Z,51.156086
2022-12-04T01:11:43.191Z,51.156036
2022-12-04T01:12:43.154Z,51.156044
2022-12-04T01:13:43.200Z,51.156052
2022-12-04T01:14:43.189Z,51.156097
2022-12-04T01:15:43.154Z,51.156044
2022-12-04T01:16:43.228Z,51.156029
2022-12-04T01:17:44.084Z,51.156101
2022-12-04T01:18:43.118Z,51.156101
2022-12-04T01:19:43.097Z,51.156174
2022-12-04T01:20:43.149Z,51.156055
2022-12-04T01:21:43.079Z,51.156139
2022-12-04T01:22:43.091Z,51.156158
2022-12-04T01:23:43.066Z,51.156082
2022-12-04T01:24:43.065Z,51.156105
2022-12-04T01:25:43.178Z,51.156151
2022-12-04T01:26:43.817Z,51.156055
2022-12-04T01:27:43.152Z,51.156059
2022-12-04T01:28:43.080Z,51.156006
2022-12-04T01:29:43.031Z,51.156063
2022-12-04T01:30:43.009Z,51.156036
2022-12-04T01:31:43.069Z,51.156185
2022-12-04T01:32:43.011Z,51.156281
2022-12-04T01:33:42.981Z,51.156212
2022-12-04T01:34:42.989Z,51.156170
2022-12-04T01:35:43.020Z,51.156143
2022-12-04T01:36:42.993Z,51.156113
2022-12-04T01:37:42.924Z,51.156036
2022-12-04T01:38:43.022Z,51.156128
2022-12-04T01:39:42.916Z,51.156162
2022-12-04T01:40:42.923Z,51.156124
2022-12-04T01:41:42.905Z,51.156128
2022-12-04T01:42:42.912Z,51.156025
2022-12-04T01:43:42.993Z,51.156010
2022-12-04T01:44:42.850Z,51.156109
2022-12-04T01:45:42.955Z,51.156139
2022-12-04T01:46:42.849Z,51.156158
2022-12-04T01:47:42.958Z,51.156155
2022-12-04T01:48:42.824Z,51.156170
2022-12-04T01:49:42.810Z,51.156235
2022-12-04T01:50:42.823Z,51.156231
2022-12-04T01:51:42.792Z,51.156185
2022-12-04T01:52:42.802Z,51.156193
2022-12-04T01:53:42.765Z,51.156193
2022-12-04T01:54:42.739Z,51.156189
2022-12-04T01:55:42.753Z,51.156212
2022-12-04T01:56:42.845Z,51.156200
2022-12-04T01:57:42.783Z,51.156170
2022-12-04T01:58:42.771Z,51.156223
2022-12-04T01:59:42.736Z,51.156139
2022-12-04T02:00:46.376Z,51.156124
2022-12-04T02:01:42.840Z,51.156116
2022-12-04T02:02:42.738Z,51.156132
2022-12-04T02:03:42.711Z,51.156170
2022-12-04T02:04:42.658Z,51.156090
2022-12-04T02:05:42.693Z,51.156132
2022-12-04T02:06:44.245Z,51.156101
2022-12-04T02:07:42.652Z,51.156113
2022-12-04T02:08:42.634Z,51.156101
2022-12-04T02:09:42.608Z,51.156097
2022-12-04T02:10:42.619Z,51.156105
2022-12-04T02:11:42.600Z,51.156124
2022-12-04T02:12:42.624Z,51.156162
2022-12-04T02:13:42.567Z,51.156208
2022-12-04T02:14:42.565Z,51.156147
2022-12-04T02:15:42.567Z,51.156132
2022-12-04T02:16:42.601Z,51.156094
2022-12-04T02:17:42.542Z,51.156120
2022-12-04T02:18:42.574Z,51.156128
2022-12-04T02:19:42.520Z,51.156124
2022-12-04T02:20:42.563Z,51.156097
2022-12-04T02:21:42.542Z,51.156113
2022-12-04T02:22:42.560Z,51.156052
2022-12-04T02:23:42.571Z,51.156055
2022-12-04T02:24:48.262Z,51.156067
2022-12-04T02:25:44.547Z,51.156101
2022-12-04T02:26:42.479Z,51.156097
2022-12-04T02:27:42.553Z,51.156151
2022-12-04T02:28:42.517Z,51.156086
2022-12-04T02:29:42.418Z,51.156116
2022-12-04T02:30:42.570Z,51.156113
2022-12-04T02:31:42.491Z,51.156086
2022-12-04T02:32:42.495Z,51.156116
2022-12-04T02:33:42.501Z,51.156063
2022-12-04T02:34:42.743Z,51.156136
2022-12-04T02:35:42.551Z,51.156075
2022-12-04T02:36:42.367Z,51.156116
2022-12-04T02:37:42.357Z,51.156151
2022-12-04T02:38:42.316Z,51.156132
2022-12-04T02:39:42.320Z,51.156116
2022-12-04T02:40:42.343Z,51.156078
2022-12-04T02:41:42.394Z,51.156090
2022-12-04T02:42:42.309Z,51.156063
2022-12-04T02:43:42.312Z,51.156067
2022-12-04T02:44:42.288Z,51.156036
2022-12-04T02:45:42.485Z,51.155972
2022-12-04T02:46:43.198Z,51.156021
2022-12-04T02:47:42.259Z,51.156078
2022-12-04T02:48:42.277Z,51.156044
2022-12-04T02:49:42.251Z,51.156147
2022-12-04T02:50:42.220Z,51.156105
2022-12-04T02:51:42.227Z,51.156143
2022-12-04T02:52:42.219Z,51.156044
2022-12-04T02:53:42.203Z,51.156094
2022-12-04T02:54:42.171Z,51.156216
2022-12-04T02:55:42.177Z,51.156055
2022-12-04T02:56:42.196Z,51.156071
2022-12-04T02:57:42.217Z,51.156075
2022-12-04T02:58:42.121Z,51.156044
2022-12-04T02:59:42.161Z,51.156086
2022-12-04T03:00:42.280Z,51.156033
2022-12-04T03:01:42.234Z,51.156189
2022-12-04T03:02:42.277Z,51.156120
2022-12-04T03:03:42.105Z,51.156090
2022-12-04T03:04:42.153Z,51.156101
2022-12-04T03:05:42.195Z,51.156101
2022-12-04T03:07:44.186Z,51.156132
2022-12-04T03:07:45.873Z,51.156132
2022-12-04T03:08:45.849Z,51.156132
2022-12-04T03:09:46.484Z,51.156116
2022-12-04T03:10:45.822Z,51.156166
2022-12-04T03:11:46.785Z,51.156067
2022-12-04T03:12:45.760Z,51.156094
2022-12-04T03:13:45.903Z,51.156101
2022-12-04T03:14:45.818Z,51.156124
2022-12-04T03:15:46.101Z,51.156136
2022-12-04T03:16:46.081Z,51.156174
2022-12-04T03:17:45.971Z,51.156139
2022-12-04T03:18:45.782Z,51.156116
2022-12-04T03:19:45.666Z,51.156143
2022-12-04T03:20:45.721Z,51.156143
2022-12-04T03:21:45.997Z,51.156101
2022-12-04T03:22:45.593Z,51.156101
2022-12-04T03:23:45.613Z,51.156143
2022-12-04T03:24:45.598Z,51.156120
2022-12-04T03:25:45.640Z,51.156143
2022-12-04T03:26:45.623Z,51.156136
2022-12-04T03:27:45.642Z,51.156139
2022-12-04T03:28:45.562Z,51.156132
2022-12-04T03:29:45.580Z,51.156101
2022-12-04T03:30:45.572Z,51.156136
2022-12-04T03:31:45.751Z,51.156078
2022-12-04T03:47:26.347Z,51.156120
2022-12-04T03:48:26.333Z,51.156067
2022-12-04T03:49:26.310Z,51.156059
2022-12-04T03:50:26.455Z,51.156071
2022-12-04T03:51:26.259Z,51.156086
2022-12-04T03:52:26.296Z,51.156109
2022-12-04T03:53:26.291Z,51.156136
2022-12-04T03:54:26.336Z,51.156097
2022-12-04T03:55:26.192Z,51.156094
2022-12-04T03:56:26.225Z,51.156078
2022-12-04T03:57:26.188Z,51.156071
2022-12-04T03:58:26.198Z,51.156097
2022-12-04T03:59:26.159Z,51.155926
2022-12-04T04:00:26.170Z,51.155998
2022-12-04T04:01:26.193Z,51.156021
2022-12-04T04:02:26.196Z,51.156071
2022-12-04T04:03:26.159Z,51.156078
2022-12-04T04:04:26.151Z,51.156101
2022-12-04T04:05:26.135Z,51.156136
2022-12-04T04:06:26.112Z,51.156109
2022-12-04T04:07:30.330Z,51.156052
2022-12-04T04:08:27.273Z,51.156071
2022-12-04T04:09:26.059Z,51.156178
2022-12-04T04:10:26.065Z,51.156239
2022-12-04T04:11:26.069Z,51.156410
2022-12-04T04:12:26.147Z,51.156216
2022-12-04T04:13:26.102Z,51.156124
2022-12-04T04:14:26.043Z,51.156136
2022-12-04T04:15:26.082Z,51.156090
2022-12-04T04:16:26.064Z,51.156086
2022-12-04T04:17:26.052Z,51.156120
2022-12-04T04:18:25.934Z,51.156147
2022-12-04T04:19:25.966Z,51.156071
2022-12-04T04:20:25.939Z,51.156067
2022-12-04T04:21:25.971Z,51.156105
2022-12-04T04:22:25.955Z,51.156071
2022-12-04T04:23:25.953Z,51.156078
2022-12-04T04:24:25.924Z,51.156063
2022-12-04T04:25:25.942Z,51.156075
2022-12-04T04:26:25.960Z,51.156078
2022-12-04T04:27:25.871Z,51.156059
2022-12-04T04:28:25.887Z,51.156071
2022-12-04T04:29:25.951Z,51.155979
2022-12-04T04:30:25.919Z,51.156013
2022-12-04T04:31:26.985Z,51.156059
2022-12-04T04:32:25.832Z,51.156090
2022-12-04T04:33:25.883Z,51.156120
2022-12-04T04:34:25.878Z,51.156075
2022-12-04T04:35:25.825Z,51.156010
2022-12-04T04:36:25.806Z,51.156040
2022-12-04T04:37:25.832Z,51.156048
2022-12-04T04:38:25.807Z,51.156017
2022-12-04T04:39:25.777Z,51.156048
2022-12-04T04:40:25.722Z,51.156025
2022-12-04T04:41:25.757Z,51.155903
2022-12-04T04:42:25.732Z,51.155914
2022-12-04T04:43:25.793Z,51.155987
2022-12-04T04:44:25.721Z,51.155968
2022-12-04T04:45:25.695Z,51.156086
2022-12-04T04:46:25.886Z,51.156002
2022-12-04T04:47:26.237Z,51.156010
2022-12-04T04:48:25.783Z,51.155987
2022-12-04T04:49:25.764Z,51.155991
2022-12-04T04:50:25.680Z,51.156013
2022-12-04T04:51:25.715Z,51.156052
2022-12-04T04:52:26.423Z,51.156021
2022-12-04T04:53:26.392Z,51.155968
2022-12-04T04:54:25.650Z,51.155994
2022-12-04T04:55:25.628Z,51.156097
2022-12-04T04:56:25.634Z,51.156082
2022-12-04T04:57:25.654Z,51.156036
2022-12-04T04:58:26.390Z,51.156063
2022-12-04T04:59:25.563Z,51.156116
2022-12-04T05:00:25.595Z,51.156055
2022-12-04T05:01:25.688Z,51.156052
2022-12-04T05:02:25.593Z,51.156067
2022-12-04T05:03:25.617Z,51.156075
2022-12-04T05:04:25.599Z,51.156048
2022-12-04T05:05:25.492Z,51.156017
2022-12-04T05:06:25.602Z,51.156055
2022-12-04T05:07:25.710Z,51.156052
2022-12-04T05:08:25.499Z,51.155979
2022-12-04T05:09:25.544Z,51.156040
2022-12-04T05:10:26.424Z,51.156055
2022-12-04T05:11:25.463Z,51.156063
2022-12-04T05:12:25.516Z,51.156067
2022-12-04T05:13:25.451Z,51.156033
2022-12-04T05:14:25.477Z,51.156059
2022-12-04T05:15:25.451Z,51.156078
2022-12-04T05:16:25.473Z,51.156090
2022-12-04T05:17:26.419Z,51.156124
2022-12-04T05:18:25.431Z,51.156086
2022-12-04T05:19:25.379Z,51.156044
2022-12-04T05:20:25.425Z,51.156113
2022-12-04T05:21:25.355Z,51.156113
2022-12-04T05:22:25.375Z,51.156071
2022-12-04T05:23:25.331Z,51.156090
2022-12-04T05:24:25.348Z,51.156063
2022-12-04T05:25:25.342Z,51.156052
2022-12-04T05:26:25.299Z,51.156086
2022-12-04T05:27:25.356Z,51.156048
2022-12-04T05:28:25.473Z,51.155994
2022-12-04T05:29:25.351Z,51.156017
2022-12-04T05:30:25.505Z,51.156025
2022-12-04T05:31:25.357Z,51.156086
2022-12-04T05:32:25.371Z,51.156067
2022-12-04T05:33:25.238Z,51.156082
2022-12-04T05:34:25.248Z,51.155983
2022-12-04T05:35:25.255Z,51.156006
2022-12-04T05:36:25.268Z,51.156044
2022-12-04T05:37:25.226Z,51.156067
2022-12-04T05:38:25.230Z,51.156059
2022-12-04T05:39:25.170Z,51.156055
2022-12-04T05:40:25.192Z,51.156116
2022-12-04T05:41:25.186Z,51.156116
2022-12-04T05:42:25.165Z,51.156101
2022-12-04T05:43:25.165Z,51.156090
2022-12-04T05:44:25.161Z,51.156078
2022-12-04T05:45:25.760Z,51.156075
2022-12-04T05:46:25.253Z,51.156036
2022-12-04T05:47:25.121Z,51.156055
2022-12-04T05:48:25.157Z,51.156055
2022-12-04T05:49:25.132Z,51.156086
2022-12-04T05:50:25.201Z,51.156071
2022-12-04T05:51:25.115Z,51.156075
2022-12-04T05:52:25.447Z,51.156075
2022-12-04T05:53:25.127Z,51.156086
2022-12-04T05:54:25.058Z,51.156109
2022-12-04T05:55:25.020Z,51.156105
2022-12-04T05:56:25.037Z,51.156071
2022-12-04T05:57:25.670Z,51.156075
2022-12-04T05:58:25.952Z,51.156086
2022-12-04T05:59:25.000Z,51.156097
2022-12-04T06:00:25.020Z,51.156094
2022-12-04T06:01:24.986Z,51.156078
2022-12-04T06:02:25.107Z,51.156101
2022-12-04T06:03:25.093Z,51.156094
2022-12-04T06:04:25.041Z,51.156071
2022-12-04T06:05:25.049Z,51.156078
2022-12-04T06:06:24.978Z,51.156090
2022-12-04T06:07:25.693Z,51.156082
2022-12-04T06:08:24.959Z,51.156094
2022-12-04T06:09:24.992Z,51.156113
2022-12-04T06:10:24.928Z,51.156101
2022-12-04T06:11:25.895Z,51.156109
2022-12-04T06:12:24.879Z,51.156113
2022-12-04T06:13:24.862Z,51.156075
2022-12-04T06:14:24.887Z,51.156078
2022-12-04T06:15:24.858Z,51.156132
2022-12-04T06:16:24.911Z,51.156288
2022-12-04T06:17:24.871Z,51.156178
2022-12-04T06:18:24.841Z,51.156094
2022-12-04T06:19:24.827Z,51.156067
2022-12-04T06:20:24.879Z,51.156067
2022-12-04T06:21:24.786Z,51.156097
2022-12-04T06:22:24.810Z,51.156071
2022-12-04T06:23:24.786Z,51.156120
2022-12-04T06:24:24.808Z,51.156132
2022-12-04T06:25:24.797Z,51.156113
2022-12-04T06:26:24.735Z,51.156086
2022-12-04T06:27:27.591Z,51.156086
2022-12-04T06:28:25.722Z,51.156094
2022-12-04T06:29:25.410Z,51.156090
2022-12-04T06:30:24.727Z,51.156101
2022-12-04T06:44:37.525Z,51.156155
2022-12-04T06:45:37.546Z,51.156151
2022-12-04T06:46:41.001Z,51.156086
2022-12-04T06:47:39.478Z,51.156075
2022-12-04T06:48:37.437Z,51.156055
2022-12-04T06:49:37.434Z,51.156063
2022-12-04T06:50:37.475Z,51.156094
2022-12-04T06:51:37.395Z,51.156067
2022-12-04T06:52:37.433Z,51.156086
2022-12-04T06:53:37.383Z,51.156132
2022-12-04T06:54:37.402Z,51.156113
2022-12-04T06:55:37.448Z,51.156086
2022-12-04T06:56:37.354Z,51.156094
2022-12-04T06:57:37.377Z,51.156105
2022-12-04T06:58:37.331Z,51.156101
2022-12-04T06:59:37.398Z,51.156094
2022-12-04T07:00:37.474Z,51.156101
2022-12-04T07:01:37.368Z,51.156147
2022-12-04T07:02:37.421Z,51.156155
2022-12-04T07:03:37.272Z,51.156113
2022-12-04T07:04:38.660Z,51.156124
2022-12-04T07:05:37.287Z,51.156109
2022-12-04T07:06:37.270Z,51.156094
2022-12-04T07:07:37.311Z,51.156113
2022-12-04T07:08:37.287Z,51.156090
2022-12-04T07:09:37.234Z,51.156063
2022-12-04T07:10:37.206Z,51.156120
2022-12-04T07:11:37.222Z,51.156094
2022-12-04T07:12:37.226Z,51.156052
2022-12-04T07:13:37.195Z,51.156116
2022-12-04T07:14:37.171Z,51.156120
2022-12-04T07:15:37.246Z,51.156090
2022-12-04T07:16:41.138Z,51.156116
2022-12-04T07:17:38.187Z,51.156120
2022-12-04T07:18:37.230Z,51.156136
2022-12-04T07:19:37.165Z,51.156124
2022-12-04T07:20:37.987Z,51.156097
2022-12-04T07:21:37.168Z,51.156075
2022-12-04T07:22:37.146Z,51.156067
2022-12-04T07:23:37.716Z,51.156055
2022-12-04T07:24:37.086Z,51.156094
2022-12-04T07:25:37.081Z,51.156109
2022-12-04T07:26:37.095Z,51.156151
2022-12-04T07:27:37.092Z,51.156075
2022-12-04T07:28:37.080Z,51.156101
2022-12-04T07:29:37.077Z,51.156086
2022-12-04T07:30:37.052Z,51.156082
2022-12-04T07:31:37.062Z,51.156075
2022-12-04T07:32:37.052Z,51.156109
2022-12-04T07:33:36.994Z,51.156063
2022-12-04T07:34:36.999Z,51.156101
2022-12-04T07:35:37.000Z,51.156097
2022-12-04T07:36:36.965Z,51.156151
2022-12-04T07:37:36.974Z,51.156128
2022-12-04T07:38:36.961Z,51.156151
2022-12-04T07:39:36.963Z,51.156105
2022-12-04T07:40:36.952Z,51.156063
2022-12-04T07:41:36.930Z,51.156048
2022-12-04T07:42:36.972Z,51.156075
2022-12-04T07:43:36.961Z,51.156071
2022-12-04T07:44:37.636Z,51.156128
2022-12-04T07:45:36.929Z,51.156071
2022-12-04T07:46:36.891Z,51.156101
2022-12-04T07:47:36.931Z,51.156155
2022-12-04T07:48:36.870Z,51.156136
2022-12-04T07:49:36.884Z,51.156109
2022-12-04T07:50:36.840Z,51.156086
2022-12-04T07:51:36.877Z,51.156071
2022-12-04T07:52:36.873Z,51.156109
2022-12-04T07:53:36.854Z,51.156139
2022-12-04T07:54:36.803Z,51.156128
2022-12-04T07:55:37.739Z,51.156136
2022-12-04T07:56:36.769Z,51.156128
2022-12-04T07:57:36.852Z,51.156113
2022-12-04T07:58:36.959Z,51.156113
2022-12-04T07:59:36.856Z,51.156132
2022-12-04T08:00:36.793Z,51.156143
2022-12-04T08:01:36.991Z,51.156132
2022-12-04T08:02:37.835Z,51.156124
2022-12-04T08:03:37.068Z,51.156120
2022-12-04T08:04:37.768Z,51.156067
2022-12-04T08:05:36.733Z,51.156078
2022-12-04T08:06:36.707Z,51.156124
2022-12-04T08:07:36.770Z,51.156124
2022-12-04T08:08:36.705Z,51.156105
2022-12-04T08:09:36.710Z,51.156166
2022-12-04T08:10:36.664Z,51.156128
2022-12-04T08:11:36.689Z,51.156105
2022-12-04T08:12:36.688Z,51.156128
2022-12-04T08:13:36.616Z,51.156132
2022-12-04T08:14:36.771Z,51.156071
2022-12-04T08:15:37.668Z,51.156078
2022-12-04T08:16:36.684Z,51.156120
2022-12-04T08:17:36.601Z,51.156116
2022-12-04T08:18:36.999Z,51.156086
2022-12-04T08:19:36.580Z,51.156113
2022-12-04T08:20:36.585Z,51.156120
2022-12-04T08:21:36.580Z,51.156151
2022-12-04T08:22:36.571Z,51.156136
2022-12-04T08:23:36.549Z,51.156151
2022-12-04T08:24:36.511Z,51.156120
2022-12-04T08:25:37.213Z,51.156132
2022-12-04T08:26:36.520Z,51.156147
2022-12-04T08:27:36.558Z,51.156132
2022-12-04T08:28:36.539Z,51.156097
2022-12-04T08:29:36.538Z,51.156101
2022-12-04T08:30:37.744Z,51.156113
2022-12-04T08:31:37.338Z,51.156139
2022-12-04T08:32:36.829Z,51.156124
2022-12-04T08:33:36.783Z,51.156139
2022-12-04T08:34:36.478Z,51.156113
2022-12-04T08:35:36.429Z,51.156116
2022-12-04T08:36:37.221Z,51.156120
2022-12-04T08:37:36.498Z,51.156139
2022-12-04T08:38:37.313Z,51.156143
2022-12-04T08:39:36.512Z,51.156128
2022-12-04T08:40:36.387Z,51.156147
2022-12-04T08:41:36.417Z,51.156120
2022-12-04T08:42:37.308Z,51.156132
2022-12-04T08:43:37.293Z,51.156124
2022-12-04T08:44:36.608Z,51.156116
2022-12-04T08:45:36.403Z,51.156105
2022-12-04T08:46:36.451Z,51.156132
2022-12-04T08:47:37.235Z,51.156136
2022-12-04T08:59:31.307Z,51.156136
2022-12-04T09:00:31.289Z,51.156120
2022-12-04T09:01:31.410Z,51.156223
2022-12-04T09:02:31.318Z,51.156170
2022-12-04T09:03:31.521Z,51.156158
2022-12-04T09:04:31.356Z,51.156143
2022-12-04T09:05:31.272Z,51.156166
2022-12-04T09:06:31.252Z,51.156147
2022-12-04T09:07:31.210Z,51.156151
2022-12-04T09:08:31.264Z,51.156147
2022-12-04T09:09:31.202Z,51.156143
2022-12-04T09:10:31.347Z,51.156086
2022-12-04T09:11:31.256Z,51.156067
2022-12-04T09:12:31.203Z,51.156090
2022-12-04T09:13:31.243Z,51.156105
2022-12-04T09:14:31.459Z,51.156109
2022-12-04T09:15:31.222Z,51.156116
2022-12-04T09:16:31.233Z,51.156181
2022-12-04T09:17:31.193Z,51.156166
2022-12-04T09:18:31.137Z,51.156094
2022-12-04T09:19:31.283Z,51.156071
2022-12-04T09:20:31.177Z,51.156055
2022-12-04T09:21:32.081Z,51.156101
2022-12-04T09:22:51.349Z,51.156090
2022-12-04T09:23:33.156Z,51.156059
2022-12-04T09:24:31.050Z,51.156078
2022-12-04T09:25:31.064Z,51.156044
2022-12-04T09:26:31.010Z,51.156071
2022-12-04T09:27:31.037Z,51.156090
2022-12-04T09:28:31.015Z,51.156124
2022-12-04T09:29:31.003Z,51.156113
2022-12-04T09:30:30.982Z,51.156105
2022-12-04T09:31:31.049Z,51.156097
2022-12-04T09:32:30.967Z,51.156067
2022-12-04T09:33:30.958Z,51.156094
2022-12-04T09:34:30.930Z,51.156078
2022-12-04T09:35:30.944Z,51.156097
2022-12-04T09:36:30.929Z,51.156090
2022-12-04T09:37:30.961Z,51.156097
2022-12-04T09:38:30.909Z,51.156067
2022-12-04T09:39:30.906Z,51.156094
2022-12-04T09:40:37.232Z,51.156086
2022-12-04T09:41:32.869Z,51.156078
2022-12-04T09:42:30.867Z,51.156075
2022-12-04T09:43:30.957Z,51.156101
2022-12-04T09:44:31.515Z,51.156071
2022-12-04T09:45:30.858Z,51.156097
2022-12-04T09:46:32.152Z,51.156078
2022-12-04T09:47:30.883Z,51.156044
2022-12-04T09:48:30.941Z,51.156075
2022-12-04T09:49:30.933Z,51.156086
2022-12-04T09:50:30.884Z,51.156090
2022-12-04T09:51:30.856Z,51.156063
2022-12-04T09:52:30.773Z,51.156086
2022-12-04T09:53:30.883Z,51.156105
2022-12-04T09:54:36.800Z,51.156105
2022-12-04T09:55:31.938Z,51.156109
2022-12-04T09:56:30.954Z,51.156075
2022-12-04T09:57:30.750Z,51.156067
2022-12-04T09:58:30.736Z,51.156086
2022-12-04T09:59:30.685Z,51.156094
2022-12-04T10:00:30.679Z,51.156105
2022-12-04T10:01:30.676Z,51.156139
2022-12-04T10:02:30.778Z,51.156170
2022-12-04T10:03:30.827Z,51.156155
2022-12-04T10:04:30.720Z,51.156143
2022-12-04T10:05:30.697Z,51.156109
2022-12-04T10:06:30.690Z,51.156090
2022-12-04T10:07:30.766Z,51.156105
2022-12-04T10:08:30.666Z,51.156124
2022-12-04T10:09:30.605Z,51.156082
2022-12-04T10:10:30.733Z,51.156097
2022-12-04T10:11:32.885Z,51.156078
2022-12-04T10:12:31.588Z,51.156067
2022-12-04T10:13:30.584Z,51.156082
2022-12-04T10:14:30.540Z,51.156071
2022-12-04T10:15:30.579Z,51.156063
2022-12-04T10:16:30.604Z,51.156071
2022-12-04T10:17:32.996Z,51.156109
2022-12-04T10:18:31.614Z,51.156105
2022-12-04T10:19:30.918Z,51.156090
2022-12-04T10:20:30.526Z,51.156067
2022-12-04T10:21:30.490Z,51.156075
2022-12-04T10:22:30.487Z,51.156078
2022-12-04T10:23:30.569Z,51.156071
2022-12-04T10:24:30.465Z,51.156052
2022-12-04T10:25:30.469Z,51.156063
2022-12-04T10:26:30.461Z,51.156071
2022-12-04T10:27:30.410Z,51.156067
2022-12-04T10:28:30.545Z,51.156048
2022-12-04T10:29:30.454Z,51.156048
2022-12-04T10:30:30.438Z,51.156059
2022-12-04T10:31:30.475Z,51.156055
2022-12-04T10:32:30.386Z,51.156059
2022-12-04T10:33:30.543Z,51.156075
2022-12-04T10:34:30.348Z,51.156075
2022-12-04T10:35:30.434Z,51.156052
2022-12-04T10:36:30.367Z,51.156025
2022-12-04T10:37:30.349Z,51.156036
2022-12-04T10:38:30.380Z,51.156033
2022-12-04T10:39:30.299Z,51.156044
2022-12-04T10:40:30.356Z,51.156075
2022-12-04T10:41:30.293Z,51.156036
2022-12-04T10:42:30.265Z,51.156059
2022-12-04T10:43:30.338Z,51.156086
2022-12-04T10:44:30.242Z,51.156090
2022-12-04T10:45:30.285Z,51.156078
2022-12-04T10:46:30.403Z,51.156082
2022-12-04T10:47:30.315Z,51.156036
2022-12-04T10:48:30.310Z,51.156094
2022-12-04T10:49:30.300Z,51.156116
2022-12-04T10:50:30.252Z,51.156116
2022-12-04T10:51:30.244Z,51.156113
2022-12-04T10:52:30.308Z,51.156075
2022-12-04T10:53:30.187Z,51.156063
2022-12-04T10:54:31.152Z,51.156044
2022-12-04T10:55:30.174Z,51.156017
2022-12-04T10:56:30.243Z,51.156113
2022-12-04T10:57:30.152Z,51.156090
2022-12-04T10:58:30.174Z,51.156109
2022-12-04T10:59:30.100Z,51.156097
2022-12-04T11:00:30.157Z,51.156086
2022-12-04T11:01:30.684Z,51.156101
2022-12-04T11:02:30.196Z,51.156094
2022-12-04T11:03:31.065Z,51.156078
2022-12-04T11:04:30.101Z,51.155972
2022-12-04T11:05:30.042Z,51.156002
2022-12-04T11:06:30.057Z,51.156040
2022-12-04T11:07:30.239Z,51.156139
2022-12-04T11:08:30.154Z,51.156113
2022-12-04T11:09:30.049Z,51.156128
2022-12-04T11:10:30.016Z,51.156109
2022-12-04T11:11:30.040Z,51.156101
2022-12-04T11:12:30.033Z,51.156078
2022-12-04T11:13:30.030Z,51.156094
2022-12-04T11:14:30.064Z,51.156105
2022-12-04T11:15:30.004Z,51.156082
2022-12-04T11:16:30.031Z,51.156052
2022-12-04T11:17:29.959Z,51.156063
2022-12-04T11:18:30.210Z,51.156136
2022-12-04T11:19:29.972Z,51.156116
2022-12-04T11:20:29.950Z,51.156128
2022-12-04T11:21:29.904Z,51.156105
2022-12-04T11:22:29.970Z,51.156136
2022-12-04T11:23:30.009Z,51.156105
2022-12-04T11:24:29.963Z,51.156067
2022-12-04T11:25:29.954Z,51.156055
2022-12-04T11:26:29.863Z,51.156071
2022-12-04T11:27:29.914Z,51.156059
2022-12-04T11:28:45.320Z,51.156082
2022-12-04T11:29:31.896Z,51.156048
2022-12-04T11:30:29.830Z,51.156075
2022-12-04T11:31:29.906Z,51.156075
2022-12-04T11:32:29.803Z,51.156075
2022-12-04T11:33:29.805Z,51.156071
2022-12-04T11:34:29.816Z,51.156052
2022-12-04T11:35:30.784Z,51.156071
2022-12-04T11:36:29.938Z,51.156082
2022-12-04T11:37:29.794Z,51.156071
2022-12-04T11:38:29.736Z,51.156055
2022-12-04T11:39:30.190Z,51.156086
2022-12-04T11:40:29.711Z,51.156094
2022-12-04T11:41:30.495Z,51.156059
2022-12-04T11:42:29.720Z,51.156048
2022-12-04T11:43:29.697Z,51.156048
2022-12-04T11:44:29.703Z,51.156055
2022-12-04T11:45:30.732Z,51.156071
2022-12-04T11:46:29.769Z,51.156052
2022-12-04T11:47:29.659Z,51.156059
2022-12-04T11:48:29.645Z,51.156067
2022-12-04T11:49:29.640Z,51.156078
2022-12-04T11:50:29.604Z,51.156067
2022-12-04T11:51:29.613Z,51.156075
2022-12-04T11:52:29.727Z,51.156052
2022-12-04T11:53:29.645Z,51.156040
2022-12-04T11:54:29.793Z,51.156097
2022-12-04T11:55:29.708Z,51.156048
2022-12-04T11:56:29.669Z,51.156055
2022-12-04T11:57:29.687Z,51.156071
2022-12-04T11:58:29.538Z,51.156078
2022-12-04T11:59:29.742Z,51.156055
2022-12-04T12:00:29.544Z,51.156063
2022-12-04T12:01:29.678Z,51.156067
2022-12-04T12:02:29.757Z,51.156075
2022-12-04T12:03:29.689Z,51.156097